sensor_id;sensor_type;location;lat;lon;timestamp;temperature;humidity
65559;DHT22;52203;51.998;5.140;2022-09-27T00:01:56;4.91;118.99
65559;DHT22;52203;51.998;5.140;2022-09-27T00:04:21;4.92;118.99
65559;DHT22;52203;51.998;5.140;2022-09-27T00:06:46;4.94;118.99
65559;DHT22;52203;51.998;5.140;2022-09-27T00:09:12;4.95;118.99
65559;DHT22;52203;51.998;5.140;2022-09-27T00:11:39;5.00;118.99
65559;DHT22;52203;51.998;5.140;2022-09-27T00:14:07;4.97;118.99
65559;DHT22;52203;51.998;5.140;2022-09-27T00:16:36;4.97;118.99
65559;DHT22;52203;51.998;5.140;2022-09-27T00:19:08;5.00;118.99
65559;DHT22;52203;51.998;5.140;2022-09-27T00:21:35;4.97;118.99
65559;DHT22;52203;51.998;5.140;2022-09-27T00:24:00;4.96;118.99
65559;DHT22;52203;51.998;5.140;2022-09-27T00:26:26;4.96;118.99
65559;DHT22;52203;51.998;5.140;2022-09-27T00:28:52;4.90;118.99
65559;DHT22;52203;51.998;5.140;2022-09-27T00:31:20;4.83;118.99
65559;DHT22;52203;51.998;5.140;2022-09-27T00:33:47;4.75;118.99
65559;DHT22;52203;51.998;5.140;2022-09-27T00:36:13;4.74;118.99
65559;DHT22;52203;51.998;5.140;2022-09-27T00:38:42;4.64;118.99
65559;DHT22;52203;51.998;5.140;2022-09-27T00:41:13;4.61;118.99
65559;DHT22;52203;51.998;5.140;2022-09-27T00:44:05;4.53;118.99
65559;DHT22;52203;51.998;5.140;2022-09-27T00:47:12;4.48;118.99
65559;DHT22;52203;51.998;5.140;2022-09-27T00:52:15;4.38;118.99
65559;DHT22;52203;51.998;5.140;2022-09-27T00:54:47;4.33;118.99
65559;DHT22;52203;51.998;5.140;2022-09-27T00:57:15;4.32;118.99
65559;DHT22;52203;51.998;5.140;2022-09-27T00:59:54;4.33;118.99
65559;DHT22;52203;51.998;5.140;2022-09-27T01:02:22;4.33;118.99
65559;DHT22;52203;51.998;5.140;2022-09-27T01:04:48;4.27;118.99
65559;DHT22;52203;51.998;5.140;2022-09-27T01:07:14;4.20;118.99
65559;DHT22;52203;51.998;5.140;2022-09-27T01:09:39;4.20;118.99
65559;DHT22;52203;51.998;5.140;2022-09-27T01:28:21;4.46;118.99
65559;DHT22;52203;51.998;5.140;2022-09-27T01:33:39;4.32;118.99
65559;DHT22;52203;51.998;5.140;2022-09-27T01:36:15;4.26;118.99
65559;DHT22;52203;51.998;5.140;2022-09-27T01:44:37;4.00;118.99
65559;DHT22;52203;51.998;5.140;2022-09-27T01:47:11;3.99;118.99
65559;DHT22;52203;51.998;5.140;2022-09-27T01:52:35;3.91;118.99
65559;DHT22;52203;51.998;5.140;2022-09-27T01:55:05;3.85;118.99
65559;DHT22;52203;51.998;5.140;2022-09-27T01:57:39;3.79;118.99
65559;DHT22;52203;51.998;5.140;2022-09-27T02:00:08;3.78;118.99
65559;DHT22;52203;51.998;5.140;2022-09-27T02:02:39;3.78;118.99
65559;DHT22;52203;51.998;5.140;2022-09-27T02:05:07;3.77;118.99
65559;DHT22;52203;51.998;5.140;2022-09-27T02:07:39;3.71;118.99
65559;DHT22;52203;51.998;5.140;2022-09-27T02:10:14;3.73;118.99
65559;DHT22;52203;51.998;5.140;2022-09-27T02:12:51;3.72;118.99
65559;DHT22;52203;51.998;5.140;2022-09-27T02:15:22;3.73;118.99
65559;DHT22;52203;51.998;5.140;2022-09-27T02:17:57;3.78;118.99
65559;DHT22;52203;51.998;5.140;2022-09-27T02:20:30;3.88;118.99
65559;DHT22;52203;51.998;5.140;2022-09-27T02:30:52;4.03;118.99
65559;DHT22;52203;51.998;5.140;2022-09-27T02:33:20;4.01;118.99
65559;DHT22;52203;51.998;5.140;2022-09-27T02:35:46;3.95;118.99
65559;DHT22;52203;51.998;5.140;2022-09-27T02:38:12;3.87;118.99
65559;DHT22;52203;51.998;5.140;2022-09-27T02:40:45;3.78;118.99
65559;DHT22;52203;51.998;5.140;2022-09-27T02:43:13;3.76;118.99
65559;DHT22;52203;51.998;5.140;2022-09-27T02:52:12;3.62;118.99
65559;DHT22;52203;51.998;5.140;2022-09-27T02:54:55;3.61;118.99
65559;DHT22;52203;51.998;5.140;2022-09-27T03:00:19;3.75;118.99
65559;DHT22;52203;51.998;5.140;2022-09-27T03:03:14;3.77;118.99
65559;DHT22;52203;51.998;5.140;2022-09-27T03:05:50;3.86;118.99
65559;DHT22;52203;51.998;5.140;2022-09-27T03:08:17;3.92;118.99
65559;DHT22;52203;51.998;5.140;2022-09-27T03:10:43;4.00;118.99
65559;DHT22;52203;51.998;5.140;2022-09-27T03:13:08;4.07;118.99
65559;DHT22;52203;51.998;5.140;2022-09-27T03:15:34;4.14;118.99
65559;DHT22;52203;51.998;5.140;2022-09-27T03:18:00;4.19;118.99
65559;DHT22;52203;51.998;5.140;2022-09-27T03:20:26;4.27;118.99
65559;DHT22;52203;51.998;5.140;2022-09-27T03:22:51;4.24;118.99
65559;DHT22;52203;51.998;5.140;2022-09-27T03:25:17;4.27;118.99
65559;DHT22;52203;51.998;5.140;2022-09-27T03:27:44;4.21;118.99
65559;DHT22;52203;51.998;5.140;2022-09-27T03:30:11;4.14;118.99
65559;DHT22;52203;51.998;5.140;2022-09-27T03:32:41;4.05;118.99
65559;DHT22;52203;51.998;5.140;2022-09-27T03:35:07;3.94;118.99
65559;DHT22;52203;51.998;5.140;2022-09-27T03:37:32;3.91;118.99
65559;DHT22;52203;51.998;5.140;2022-09-27T03:39:58;3.84;118.99
65559;DHT22;52203;51.998;5.140;2022-09-27T03:42:23;3.73;118.99
65559;DHT22;52203;51.998;5.140;2022-09-27T03:44:49;3.67;118.99
65559;DHT22;52203;51.998;5.140;2022-09-27T03:47:15;3.63;118.99
65559;DHT22;52203;51.998;5.140;2022-09-27T03:49:41;3.56;118.99
65559;DHT22;52203;51.998;5.140;2022-09-27T03:52:06;3.61;118.99
65559;DHT22;52203;51.998;5.140;2022-09-27T03:54:32;3.67;118.99
65559;DHT22;52203;51.998;5.140;2022-09-27T03:56:57;3.64;118.99
65559;DHT22;52203;51.998;5.140;2022-09-27T03:59:23;3.64;118.99
65559;DHT22;52203;51.998;5.140;2022-09-27T04:01:48;3.63;118.99
65559;DHT22;52203;51.998;5.140;2022-09-27T04:04:14;3.64;118.99
65559;DHT22;52203;51.998;5.140;2022-09-27T04:06:39;3.74;118.99
65559;DHT22;52203;51.998;5.140;2022-09-27T04:09:05;3.76;118.99
65559;DHT22;52203;51.998;5.140;2022-09-27T04:11:30;3.77;118.99
65559;DHT22;52203;51.998;5.140;2022-09-27T04:13:57;3.69;118.99
65559;DHT22;52203;51.998;5.140;2022-09-27T04:16:23;3.67;118.99
65559;DHT22;52203;51.998;5.140;2022-09-27T04:18:49;3.69;118.99
65559;DHT22;52203;51.998;5.140;2022-09-27T04:21:15;3.67;118.99
65559;DHT22;52203;51.998;5.140;2022-09-27T04:23:40;3.67;118.99
65559;DHT22;52203;51.998;5.140;2022-09-27T04:26:06;3.63;118.99
65559;DHT22;52203;51.998;5.140;2022-09-27T04:28:31;3.62;118.99
65559;DHT22;52203;51.998;5.140;2022-09-27T04:30:57;3.70;118.99
65559;DHT22;52203;51.998;5.140;2022-09-27T04:33:23;3.75;118.99
65559;DHT22;52203;51.998;5.140;2022-09-27T04:35:49;3.77;118.99
65559;DHT22;52203;51.998;5.140;2022-09-27T04:38:33;3.77;118.99
65559;DHT22;52203;51.998;5.140;2022-09-27T04:40:59;3.85;118.99
65559;DHT22;52203;51.998;5.140;2022-09-27T04:43:26;3.89;118.99
65559;DHT22;52203;51.998;5.140;2022-09-27T04:45:52;3.86;118.99
65559;DHT22;52203;51.998;5.140;2022-09-27T04:48:17;3.83;118.99
65559;DHT22;52203;51.998;5.140;2022-09-27T04:50:43;3.85;118.99
65559;DHT22;52203;51.998;5.140;2022-09-27T04:53:12;3.88;118.99
65559;DHT22;52203;51.998;5.140;2022-09-27T04:55:38;3.91;118.99
65559;DHT22;52203;51.998;5.140;2022-09-27T04:58:04;3.91;118.99
65559;DHT22;52203;51.998;5.140;2022-09-27T05:00:30;3.99;118.99
65559;DHT22;52203;51.998;5.140;2022-09-27T05:02:56;4.01;118.99
65559;DHT22;52203;51.998;5.140;2022-09-27T05:05:21;4.00;118.99
65559;DHT22;52203;51.998;5.140;2022-09-27T05:07:47;4.02;118.99
65559;DHT22;52203;51.998;5.140;2022-09-27T05:10:12;4.05;118.99
65559;DHT22;52203;51.998;5.140;2022-09-27T05:12:38;4.03;118.99
65559;DHT22;52203;51.998;5.140;2022-09-27T05:15:04;4.02;118.99
65559;DHT22;52203;51.998;5.140;2022-09-27T05:17:30;3.97;118.99
65559;DHT22;52203;51.998;5.140;2022-09-27T05:19:55;3.98;118.99
65559;DHT22;52203;51.998;5.140;2022-09-27T05:22:21;3.99;118.99
65559;DHT22;52203;51.998;5.140;2022-09-27T05:24:46;4.01;118.99
65559;DHT22;52203;51.998;5.140;2022-09-27T05:27:13;4.00;118.99
65559;DHT22;52203;51.998;5.140;2022-09-27T05:29:46;4.04;118.99
65559;DHT22;52203;51.998;5.140;2022-09-27T05:32:11;4.02;118.99
65559;DHT22;52203;51.998;5.140;2022-09-27T05:34:37;4.03;118.99
65559;DHT22;52203;51.998;5.140;2022-09-27T05:37:03;4.04;118.99
65559;DHT22;52203;51.998;5.140;2022-09-27T05:39:28;4.03;118.99
65559;DHT22;52203;51.998;5.140;2022-09-27T05:41:54;4.00;118.99
65559;DHT22;52203;51.998;5.140;2022-09-27T05:44:20;4.05;118.99
65559;DHT22;52203;51.998;5.140;2022-09-27T05:46:46;4.06;118.99
65559;DHT22;52203;51.998;5.140;2022-09-27T05:49:11;4.07;118.99
65559;DHT22;52203;51.998;5.140;2022-09-27T05:51:37;4.12;118.99
65559;DHT22;52203;51.998;5.140;2022-09-27T05:54:02;4.09;118.99
65559;DHT22;52203;51.998;5.140;2022-09-27T05:56:28;4.14;118.99
65559;DHT22;52203;51.998;5.140;2022-09-27T05:58:53;4.12;118.99
65559;DHT22;52203;51.998;5.140;2022-09-27T06:01:19;4.13;118.99
65559;DHT22;52203;51.998;5.140;2022-09-27T06:03:44;4.16;118.99
65559;DHT22;52203;51.998;5.140;2022-09-27T06:06:12;4.18;118.99
65559;DHT22;52203;51.998;5.140;2022-09-27T06:08:40;4.22;118.99
65559;DHT22;52203;51.998;5.140;2022-09-27T06:11:10;4.22;118.99
65559;DHT22;52203;51.998;5.140;2022-09-27T06:13:39;4.27;118.99
65559;DHT22;52203;51.998;5.140;2022-09-27T06:16:06;4.30;118.99
65559;DHT22;52203;51.998;5.140;2022-09-27T06:18:32;4.29;118.99
65559;DHT22;52203;51.998;5.140;2022-09-27T06:20:59;4.31;118.99
65559;DHT22;52203;51.998;5.140;2022-09-27T06:23:25;4.30;118.99
65559;DHT22;52203;51.998;5.140;2022-09-27T06:25:51;4.27;118.99
65559;DHT22;52203;51.998;5.140;2022-09-27T06:28:17;4.29;118.99
65559;DHT22;52203;51.998;5.140;2022-09-27T06:30:45;4.32;118.99
65559;DHT22;52203;51.998;5.140;2022-09-27T06:33:12;4.30;118.99
65559;DHT22;52203;51.998;5.140;2022-09-27T06:35:38;4.33;118.99
65559;DHT22;52203;51.998;5.140;2022-09-27T06:38:05;4.34;118.99
65559;DHT22;52203;51.998;5.140;2022-09-27T06:40:33;4.33;118.99
65559;DHT22;52203;51.998;5.140;2022-09-27T06:43:07;4.34;118.99
65559;DHT22;52203;51.998;5.140;2022-09-27T06:45:34;4.36;118.99
65559;DHT22;52203;51.998;5.140;2022-09-27T06:48:01;4.41;118.99
65559;DHT22;52203;51.998;5.140;2022-09-27T06:50:34;4.42;118.99
65559;DHT22;52203;51.998;5.140;2022-09-27T06:53:02;4.54;118.99
65559;DHT22;52203;51.998;5.140;2022-09-27T06:55:28;4.58;118.99
65559;DHT22;52203;51.998;5.140;2022-09-27T06:57:54;4.67;118.99
65559;DHT22;52203;51.998;5.140;2022-09-27T07:00:38;4.65;118.99
65559;DHT22;52203;51.998;5.140;2022-09-27T07:03:04;4.72;118.99
65559;DHT22;52203;51.998;5.140;2022-09-27T07:05:30;4.73;118.99
65559;DHT22;52203;51.998;5.140;2022-09-27T07:07:56;4.76;118.99
65559;DHT22;52203;51.998;5.140;2022-09-27T07:10:24;4.67;118.99
65559;DHT22;52203;51.998;5.140;2022-09-27T07:12:50;4.69;118.99
65559;DHT22;52203;51.998;5.140;2022-09-27T07:15:18;4.74;118.99
65559;DHT22;52203;51.998;5.140;2022-09-27T07:17:46;4.78;118.99
65559;DHT22;52203;51.998;5.140;2022-09-27T07:20:11;4.75;118.99
65559;DHT22;52203;51.998;5.140;2022-09-27T07:22:41;4.73;118.99
65559;DHT22;52203;51.998;5.140;2022-09-27T07:25:10;4.77;118.99
65559;DHT22;52203;51.998;5.140;2022-09-27T07:27:36;4.79;118.99
65559;DHT22;52203;51.998;5.140;2022-09-27T07:30:02;4.82;118.99
65559;DHT22;52203;51.998;5.140;2022-09-27T07:32:28;4.77;118.99
65559;DHT22;52203;51.998;5.140;2022-09-27T07:34:53;4.71;118.99
65559;DHT22;52203;51.998;5.140;2022-09-27T07:37:19;4.65;118.99
65559;DHT22;52203;51.998;5.140;2022-09-27T07:39:46;4.66;118.99
65559;DHT22;52203;51.998;5.140;2022-09-27T07:42:11;4.67;118.99
65559;DHT22;52203;51.998;5.140;2022-09-27T07:44:38;4.72;118.99
65559;DHT22;52203;51.998;5.140;2022-09-27T07:47:06;4.71;118.99
65559;DHT22;52203;51.998;5.140;2022-09-27T07:49:41;4.73;118.99
65559;DHT22;52203;51.998;5.140;2022-09-27T07:52:06;4.67;118.99
65559;DHT22;52203;51.998;5.140;2022-09-27T07:54:32;4.63;118.99
65559;DHT22;52203;51.998;5.140;2022-09-27T07:56:58;4.65;118.99
65559;DHT22;52203;51.998;5.140;2022-09-27T07:59:30;4.63;118.99
65559;DHT22;52203;51.998;5.140;2022-09-27T08:01:57;4.48;118.99
65559;DHT22;52203;51.998;5.140;2022-09-27T08:04:22;4.45;118.99
65559;DHT22;52203;51.998;5.140;2022-09-27T08:06:48;4.43;118.99
65559;DHT22;52203;51.998;5.140;2022-09-27T08:09:13;4.32;118.99
65559;DHT22;52203;51.998;5.140;2022-09-27T08:11:39;4.32;118.99
65559;DHT22;52203;51.998;5.140;2022-09-27T08:14:04;4.28;118.99
65559;DHT22;52203;51.998;5.140;2022-09-27T08:16:32;4.18;118.99
65559;DHT22;52203;51.998;5.140;2022-09-27T08:18:58;4.19;118.99
65559;DHT22;52203;51.998;5.140;2022-09-27T08:21:24;4.16;118.99
65559;DHT22;52203;51.998;5.140;2022-09-27T08:23:49;4.15;118.99
65559;DHT22;52203;51.998;5.140;2022-09-27T08:26:15;4.15;118.99
65559;DHT22;52203;51.998;5.140;2022-09-27T08:28:40;4.23;118.99
65559;DHT22;52203;51.998;5.140;2022-09-27T08:31:06;4.30;118.99
65559;DHT22;52203;51.998;5.140;2022-09-27T08:33:31;4.35;118.99
65559;DHT22;52203;51.998;5.140;2022-09-27T08:35:57;4.33;118.99
65559;DHT22;52203;51.998;5.140;2022-09-27T08:38:22;4.45;118.99
65559;DHT22;52203;51.998;5.140;2022-09-27T08:40:53;4.38;118.99
65559;DHT22;52203;51.998;5.140;2022-09-27T08:43:42;4.41;118.99
65559;DHT22;52203;51.998;5.140;2022-09-27T08:49:04;4.41;118.99
65559;DHT22;52203;51.998;5.140;2022-09-27T08:51:32;4.48;118.99
65559;DHT22;52203;51.998;5.140;2022-09-27T08:54:15;4.46;118.99
65559;DHT22;52203;51.998;5.140;2022-09-27T08:56:43;4.43;118.99
65559;DHT22;52203;51.998;5.140;2022-09-27T08:59:21;4.45;118.99
65559;DHT22;52203;51.998;5.140;2022-09-27T09:01:50;4.35;118.99
65559;DHT22;52203;51.998;5.140;2022-09-27T09:04:32;4.37;118.99
65559;DHT22;52203;51.998;5.140;2022-09-27T09:07:21;4.29;118.99
65559;DHT22;52203;51.998;5.140;2022-09-27T09:18:21;4.41;118.99
65559;DHT22;52203;51.998;5.140;2022-09-27T09:26:04;4.44;118.99
65559;DHT22;52203;51.998;5.140;2022-09-27T09:28:42;4.57;118.99
65559;DHT22;52203;51.998;5.140;2022-09-27T09:34:23;4.49;118.99
65559;DHT22;52203;51.998;5.140;2022-09-27T09:37:20;4.56;118.99
65559;DHT22;52203;51.998;5.140;2022-09-27T09:40:23;4.52;118.99
65559;DHT22;52203;51.998;5.140;2022-09-27T09:43:03;4.73;118.99
65559;DHT22;52203;51.998;5.140;2022-09-27T09:45:35;4.77;118.99
65559;DHT22;52203;51.998;5.140;2022-09-27T09:50:53;4.81;118.99
65559;DHT22;52203;51.998;5.140;2022-09-27T09:56:13;4.68;118.99
65559;DHT22;52203;51.998;5.140;2022-09-27T09:58:50;4.88;118.99
65559;DHT22;52203;51.998;5.140;2022-09-27T10:03:44;4.94;118.99
65559;DHT22;52203;51.998;5.140;2022-09-27T10:06:11;5.03;118.99
65559;DHT22;52203;51.998;5.140;2022-09-27T10:08:38;5.23;118.99
65559;DHT22;52203;51.998;5.140;2022-09-27T10:11:03;5.34;118.99
65559;DHT22;52203;51.998;5.140;2022-09-27T10:13:33;5.28;118.99
65559;DHT22;52203;51.998;5.140;2022-09-27T10:16:11;5.49;118.99
65559;DHT22;52203;51.998;5.140;2022-09-27T10:18:38;5.45;118.99
65559;DHT22;52203;51.998;5.140;2022-09-27T10:21:10;5.39;118.99
65559;DHT22;52203;51.998;5.140;2022-09-27T10:24:02;5.26;118.99
65559;DHT22;52203;51.998;5.140;2022-09-27T10:26:30;5.19;118.99
65559;DHT22;52203;51.998;5.140;2022-09-27T10:28:57;5.08;118.99
65559;DHT22;52203;51.998;5.140;2022-09-27T10:31:23;5.09;118.99
65559;DHT22;52203;51.998;5.140;2022-09-27T10:33:58;4.93;118.99
65559;DHT22;52203;51.998;5.140;2022-09-27T10:36:28;4.88;118.99
65559;DHT22;52203;51.998;5.140;2022-09-27T10:38:57;4.93;118.99
65559;DHT22;52203;51.998;5.140;2022-09-27T10:41:24;4.80;118.99
65559;DHT22;52203;51.998;5.140;2022-09-27T10:43:50;4.72;118.99
65559;DHT22;52203;51.998;5.140;2022-09-27T10:46:26;4.82;118.99
65559;DHT22;52203;51.998;5.140;2022-09-27T10:51:44;4.68;118.99
65559;DHT22;52203;51.998;5.140;2022-09-27T10:54:28;4.62;118.99
65559;DHT22;52203;51.998;5.140;2022-09-27T10:57:03;4.69;118.99
65559;DHT22;52203;51.998;5.140;2022-09-27T10:59:32;4.66;118.99
65559;DHT22;52203;51.998;5.140;2022-09-27T11:01:59;4.64;118.99
65559;DHT22;52203;51.998;5.140;2022-09-27T11:04:31;4.63;118.99
65559;DHT22;52203;51.998;5.140;2022-09-27T11:07:18;4.05;118.99
65559;DHT22;52203;51.998;5.140;2022-09-27T11:09:53;3.83;118.99
65559;DHT22;52203;51.998;5.140;2022-09-27T11:12:20;3.85;118.99
65559;DHT22;52203;51.998;5.140;2022-09-27T11:14:55;3.91;118.99
65559;DHT22;52203;51.998;5.140;2022-09-27T11:17:44;3.99;118.99
65559;DHT22;52203;51.998;5.140;2022-09-27T11:23:13;4.29;118.99
65559;DHT22;52203;51.998;5.140;2022-09-27T11:26:16;4.33;118.99
65559;DHT22;52203;51.998;5.140;2022-09-27T11:31:43;4.34;118.99
65559;DHT22;52203;51.998;5.140;2022-09-27T11:48:11;4.23;118.99
65559;DHT22;52203;51.998;5.140;2022-09-27T11:51:02;4.18;118.99
65559;DHT22;52203;51.998;5.140;2022-09-27T11:56:49;4.15;118.99
65559;DHT22;52203;51.998;5.140;2022-09-27T11:59:47;4.05;118.99
65559;DHT22;52203;51.998;5.140;2022-09-27T12:02:41;4.14;118.99
65559;DHT22;52203;51.998;5.140;2022-09-27T12:05:26;4.09;118.99
65559;DHT22;52203;51.998;5.140;2022-09-27T12:10:47;4.02;118.99
65559;DHT22;52203;51.998;5.140;2022-09-27T12:13:22;4.15;118.99
65559;DHT22;52203;51.998;5.140;2022-09-27T12:15:50;4.24;118.99
65559;DHT22;52203;51.998;5.140;2022-09-27T12:18:28;4.42;118.99
65559;DHT22;52203;51.998;5.140;2022-09-27T12:20:59;4.37;118.99
65559;DHT22;52203;51.998;5.140;2022-09-27T12:25:57;4.49;118.99
65559;DHT22;52203;51.998;5.140;2022-09-27T12:28:37;4.27;118.99
65559;DHT22;52203;51.998;5.140;2022-09-27T12:31:16;4.47;118.99
65559;DHT22;52203;51.998;5.140;2022-09-27T12:36:15;4.51;118.99
65559;DHT22;52203;51.998;5.140;2022-09-27T12:41:13;5.12;118.99
65559;DHT22;52203;51.998;5.140;2022-09-27T12:43:43;5.36;118.99
65559;DHT22;52203;51.998;5.140;2022-09-27T12:47:00;5.65;118.99
65559;DHT22;52203;51.998;5.140;2022-09-27T12:52:12;5.99;118.99
65559;DHT22;52203;51.998;5.140;2022-09-27T12:54:49;5.93;118.99
65559;DHT22;52203;51.998;5.140;2022-09-27T12:57:35;6.17;118.99
65559;DHT22;52203;51.998;5.140;2022-09-27T13:00:09;6.26;118.99
65559;DHT22;52203;51.998;5.140;2022-09-27T13:02:54;6.43;118.99
65559;DHT22;52203;51.998;5.140;2022-09-27T13:08:33;6.94;118.99
65559;DHT22;52203;51.998;5.140;2022-09-27T13:11:27;7.08;118.99
65559;DHT22;52203;51.998;5.140;2022-09-27T13:13:55;7.02;118.99
65559;DHT22;52203;51.998;5.140;2022-09-27T13:16:23;7.17;118.99
65559;DHT22;52203;51.998;5.140;2022-09-27T13:18:57;7.58;118.99
65559;DHT22;52203;51.998;5.140;2022-09-27T13:32:37;9.19;118.99
65559;DHT22;52203;51.998;5.140;2022-09-27T13:35:19;9.12;118.99
65559;DHT22;52203;51.998;5.140;2022-09-27T13:37:46;8.95;118.99
65559;DHT22;52203;51.998;5.140;2022-09-27T13:40:28;8.62;118.99
65559;DHT22;52203;51.998;5.140;2022-09-27T13:45:40;8.46;118.99
65559;DHT22;52203;51.998;5.140;2022-09-27T13:54:05;7.93;118.99
65559;DHT22;52203;51.998;5.140;2022-09-27T13:59:33;7.63;118.99
65559;DHT22;52203;51.998;5.140;2022-09-27T14:04:43;7.60;118.99
65559;DHT22;52203;51.998;5.140;2022-09-27T14:07:14;7.50;118.99
65559;DHT22;52203;51.998;5.140;2022-09-27T14:09:44;7.39;118.99
65559;DHT22;52203;51.998;5.140;2022-09-27T14:12:15;7.18;118.99
65559;DHT22;52203;51.998;5.140;2022-09-27T14:14:44;7.10;118.99
65559;DHT22;52203;51.998;5.140;2022-09-27T14:17:11;7.18;118.99
65559;DHT22;52203;51.998;5.140;2022-09-27T14:19:42;7.11;118.99
65559;DHT22;52203;51.998;5.140;2022-09-27T14:22:19;7.02;118.99
65559;DHT22;52203;51.998;5.140;2022-09-27T14:24:50;6.90;118.99
65559;DHT22;52203;51.998;5.140;2022-09-27T14:27:21;6.86;118.99
65559;DHT22;52203;51.998;5.140;2022-09-27T14:29:56;6.94;118.99
65559;DHT22;52203;51.998;5.140;2022-09-27T14:32:25;6.87;118.99
65559;DHT22;52203;51.998;5.140;2022-09-27T14:35:11;7.01;118.99
65559;DHT22;52203;51.998;5.140;2022-09-27T14:38:03;6.85;118.99
65559;DHT22;52203;51.998;5.140;2022-09-27T14:43:20;6.76;118.99
65559;DHT22;52203;51.998;5.140;2022-09-27T14:45:47;6.70;118.99
65559;DHT22;52203;51.998;5.140;2022-09-27T14:48:29;6.71;118.99
65559;DHT22;52203;51.998;5.140;2022-09-27T14:53:43;6.69;118.99
65559;DHT22;52203;51.998;5.140;2022-09-27T14:56:18;6.56;118.99
65559;DHT22;52203;51.998;5.140;2022-09-27T14:58:48;6.68;118.99
65559;DHT22;52203;51.998;5.140;2022-09-27T15:01:16;6.79;118.99
65559;DHT22;52203;51.998;5.140;2022-09-27T15:03:43;6.70;118.99
65559;DHT22;52203;51.998;5.140;2022-09-27T15:06:09;6.65;118.99
65559;DHT22;52203;51.998;5.140;2022-09-27T15:08:35;6.76;118.99
65559;DHT22;52203;51.998;5.140;2022-09-27T15:11:04;6.71;118.99
65559;DHT22;52203;51.998;5.140;2022-09-27T15:13:32;6.63;118.99
65559;DHT22;52203;51.998;5.140;2022-09-27T15:15:58;6.50;118.99
65559;DHT22;52203;51.998;5.140;2022-09-27T15:21:04;6.46;118.99
65559;DHT22;52203;51.998;5.140;2022-09-27T15:23:36;6.49;118.99
65559;DHT22;52203;51.998;5.140;2022-09-27T15:28:34;6.41;118.99
65559;DHT22;52203;51.998;5.140;2022-09-27T15:31:03;6.34;118.99
65559;DHT22;52203;51.998;5.140;2022-09-27T15:33:30;6.30;118.99
65559;DHT22;52203;51.998;5.140;2022-09-27T15:35:59;6.29;118.99
65559;DHT22;52203;51.998;5.140;2022-09-27T15:38:37;6.26;118.99
65559;DHT22;52203;51.998;5.140;2022-09-27T15:41:15;6.11;118.99
65559;DHT22;52203;51.998;5.140;2022-09-27T15:43:42;6.10;118.99
65559;DHT22;52203;51.998;5.140;2022-09-27T15:46:30;6.10;118.99
65559;DHT22;52203;51.998;5.140;2022-09-27T15:51:51;5.91;118.99
65559;DHT22;52203;51.998;5.140;2022-09-27T15:54:20;5.82;118.99
65559;DHT22;52203;51.998;5.140;2022-09-27T15:56:48;5.86;118.99
65559;DHT22;52203;51.998;5.140;2022-09-27T15:59:23;5.61;118.99
65559;DHT22;52203;51.998;5.140;2022-09-27T16:01:54;5.28;118.99
65559;DHT22;52203;51.998;5.140;2022-09-27T16:04:20;5.17;118.99
65559;DHT22;52203;51.998;5.140;2022-09-27T16:06:46;5.27;118.99
65559;DHT22;52203;51.998;5.140;2022-09-27T16:09:18;5.04;118.99
65559;DHT22;52203;51.998;5.140;2022-09-27T16:11:48;4.98;118.99
65559;DHT22;52203;51.998;5.140;2022-09-27T16:14:15;5.05;118.99
65559;DHT22;52203;51.998;5.140;2022-09-27T16:16:44;5.06;118.99
65559;DHT22;52203;51.998;5.140;2022-09-27T16:19:10;5.12;118.99
65559;DHT22;52203;51.998;5.140;2022-09-27T16:21:35;5.00;118.99
65559;DHT22;52203;51.998;5.140;2022-09-27T16:24:01;5.06;118.99
65559;DHT22;52203;51.998;5.140;2022-09-27T16:26:28;4.97;118.99
65559;DHT22;52203;51.998;5.140;2022-09-27T16:28:53;4.89;118.99
65559;DHT22;52203;51.998;5.140;2022-09-27T16:31:20;5.06;118.99
65559;DHT22;52203;51.998;5.140;2022-09-27T16:33:49;5.08;118.99
65559;DHT22;52203;51.998;5.140;2022-09-27T16:36:15;5.10;118.99
65559;DHT22;52203;51.998;5.140;2022-09-27T16:38:47;5.08;118.99
65559;DHT22;52203;51.998;5.140;2022-09-27T16:41:13;5.11;118.99
65559;DHT22;52203;51.998;5.140;2022-09-27T16:43:39;5.11;118.99
65559;DHT22;52203;51.998;5.140;2022-09-27T16:46:08;5.06;118.99
65559;DHT22;52203;51.998;5.140;2022-09-27T16:48:36;5.05;118.99
65559;DHT22;52203;51.998;5.140;2022-09-27T16:51:06;5.07;118.99
65559;DHT22;52203;51.998;5.140;2022-09-27T16:53:52;5.02;118.99
65559;DHT22;52203;51.998;5.140;2022-09-27T16:56:17;5.00;118.99
65559;DHT22;52203;51.998;5.140;2022-09-27T16:58:44;5.02;118.99
65559;DHT22;52203;51.998;5.140;2022-09-27T17:01:10;5.01;118.99
65559;DHT22;52203;51.998;5.140;2022-09-27T17:03:36;4.93;118.99
65559;DHT22;52203;51.998;5.140;2022-09-27T17:06:03;4.93;118.99
65559;DHT22;52203;51.998;5.140;2022-09-27T17:08:29;4.95;118.99
65559;DHT22;52203;51.998;5.140;2022-09-27T17:10:54;4.81;118.99
65559;DHT22;52203;51.998;5.140;2022-09-27T17:13:22;4.75;118.99
65559;DHT22;52203;51.998;5.140;2022-09-27T17:15:47;4.64;118.99
65559;DHT22;52203;51.998;5.140;2022-09-27T17:18:13;4.64;118.99
65559;DHT22;52203;51.998;5.140;2022-09-27T17:20:39;4.46;118.99
65559;DHT22;52203;51.998;5.140;2022-09-27T17:23:05;4.45;118.99
65559;DHT22;52203;51.998;5.140;2022-09-27T17:25:31;4.51;118.99
65559;DHT22;52203;51.998;5.140;2022-09-27T17:27:56;4.56;118.99
65559;DHT22;52203;51.998;5.140;2022-09-27T17:30:22;4.44;118.99
65559;DHT22;52203;51.998;5.140;2022-09-27T17:32:48;4.44;118.99
65559;DHT22;52203;51.998;5.140;2022-09-27T17:35:13;4.39;118.99
65559;DHT22;52203;51.998;5.140;2022-09-27T17:37:40;4.37;118.99
65559;DHT22;52203;51.998;5.140;2022-09-27T17:40:06;4.34;118.99
65559;DHT22;52203;51.998;5.140;2022-09-27T17:42:32;4.38;118.99
65559;DHT22;52203;51.998;5.140;2022-09-27T17:44:59;4.45;118.99
65559;DHT22;52203;51.998;5.140;2022-09-27T17:47:25;4.44;118.99
65559;DHT22;52203;51.998;5.140;2022-09-27T17:50:09;4.45;118.99
65559;DHT22;52203;51.998;5.140;2022-09-27T17:52:52;4.43;118.99
65559;DHT22;52203;51.998;5.140;2022-09-27T17:55:18;4.42;118.99
65559;DHT22;52203;51.998;5.140;2022-09-27T17:57:46;4.34;118.99
65559;DHT22;52203;51.998;5.140;2022-09-27T18:00:13;4.31;118.99
65559;DHT22;52203;51.998;5.140;2022-09-27T18:02:38;4.32;118.99
65559;DHT22;52203;51.998;5.140;2022-09-27T18:05:04;4.35;118.99
65559;DHT22;52203;51.998;5.140;2022-09-27T18:07:30;4.26;118.99
65559;DHT22;52203;51.998;5.140;2022-09-27T18:09:58;4.26;118.99
65559;DHT22;52203;51.998;5.140;2022-09-27T18:12:24;4.29;118.99
65559;DHT22;52203;51.998;5.140;2022-09-27T18:14:57;4.31;118.99
65559;DHT22;52203;51.998;5.140;2022-09-27T18:17:22;4.30;118.99
65559;DHT22;52203;51.998;5.140;2022-09-27T18:19:49;4.23;118.99
65559;DHT22;52203;51.998;5.140;2022-09-27T18:22:14;4.26;118.99
65559;DHT22;52203;51.998;5.140;2022-09-27T18:24:40;4.22;118.99